Manly, IA (50456)

9:21 AM CDT on August 28, 2015 (GMT -0500)
North Rural Mason City | | Change Station
CLOSE
Current Station
Personal Weather Station
Location: Mason City, IA
Elevation: 1138 ft
Nearby Weather Stations

Elev 1138 ft 43.21 °N, 93.20 °W | Updated 55 seconds ago

Rain
Rain
61.0 °F
Feels Like 61.0 °F
N
6.3
Wind Variable Wind from ESE

Today
High -- | Low -- °F
--% Chance of Precip.
Yesterday
High -- | Low -- °F
Precip. -- in
6:32 AM 7:55 PM
Waxing Gibbous, 98% visible
Pressure 30.03 in
Visibility 3.0 miles
Clouds Scattered Clouds 300 ft
Mostly Cloudy 7500 ft
Overcast 9500 ft
Dew Point 61 °F
Humidity 99%
Rainfall 0.79 in
Snow Depth Not available.
UV 1 out of 12
Pollen 1.10 out of 12
Air Quality Not available.
Flu Activity Not available.
SPECI KMCW 281402Z AUTO 13011KT 3SM RA BR SCT003 BKN075 OVC095 17/16 A3003 RMK AO2 P0002 T01670161
Pressure 30.03 in
Visibility 3.0 miles
Clouds Scattered Clouds 300 ft
Mostly Cloudy 7500 ft
Overcast 9500 ft
Dew Point 61 °F
Humidity 99%
Rainfall 0.79 in
Snow Depth Not available.
UV 1 out of 12
Pollen 1.10 out of 12
Air Quality Not available.
Flu Activity Not available.
SPECI KMCW 281402Z AUTO 13011KT 3SM RA BR SCT003 BKN075 OVC095 17/16 A3003 RMK AO2 P0002 T01670161

10-Day Weather Forecast

×

Almanac

Astronomy

Aug. 28, 2015 Rise Set
Actual Time
Civil Twilight
Nautical Twilight
Astronomical Twilight
Moon
Length of Visible Light
Length of Day
Tomorrow will be .
, % of the Moon is Illuminated

Today's Extremes

State Highs State Lows

Community

WunderPhotos

Upload Photos

1,850,381 photos uploaded!

WunderBlogs® & News

Nearby

Air Quality

  Air Quality AQ Index Pollutant
Not available.

Snow Depth

Station Depth Elevation

Earthquake Activity

City Distance Mag. Time & Date
Minimum magnitude displayed is 2.5.

Coastal Water Temperatures

Place Temperature

Stations

Nearby Weather Stations

Station Location Temp. Windchill Dew Point Humidity Wind Precip. Elev Updated Type